メインページ
METAR-TAF:

METAR-TAF

空港 :

タンソンニャット国際空港

ホーチミン, ベトナム

緯度: 10-49N, 経度: 106-40E, 海抜: 19m

現時点の気象観測

当レポートは35分前の23:30(UTC)に作成
西/南西の風 8kt
気温 26°C
湿度 94%
気圧 1004 hPa
視程10km以上
高度1500ftの雲は散在している
高度5000ftの千切れ雲あり

METAR: VVTS 162330Z 25008KT 9999 SCT015 BKN050 26/25 Q1004 NOSIG

時間: 07:05 (00:05 UTC)

予報

当レポートは1時間5分前の23:00(UTC)に作成
予報は17日の 00時(UTC)から 18日の 06時(UTC)まで有効
南西の風 12kt
視程10km以上
高度1700ftの雲は散在している
高度5000ftの千切れ雲あり
17日の 06時(UTC)から 17日の 10時(UTC)まで一時的に
視程: 3000m
高度1300ftの千切れ雲あり
高度1500ftの雲は散在している, 積乱雲.
激しい雷雨, 雨

TAF: VVTS 162300Z 1700/1806 22012KT 9999 SCT017 BKN050 TEMPO 1706/1710 3000 TSRA BKN013 SCT015CB

4,000以上の空港の気象観測と天気予報(METAR報とTAF報)

利用可能な観測所は地図上に黄色い丸と赤い丸で示す。

丸の上にカーソルを重ねると観測所名を参照できる。

次にクリックすると気象観測と天気予報を参照できる。

マップの切り替え:黒色「×」印の緑ボタンをクリックして拡大、「-」印の緑ボタンをクリックして縮小、緑色の三角印をクリックして隣りの地図に切り替え


METAR-TAF: